Time;durP1;ratioP1;P1;durP2;ratioP2;P2;SDS_P1;SDS_P2;PMS_P1;PMS_P2;Temp;Humidity;BMP_temperature;BMP_pressure;BME280_temperature;BME280_humidity;BME280_pressure;Samples;Min_cycle;Max_cycle;Signal;HPM_P1;HPM_P2
2022/03/30 00:06:15;;;;;;;;;0.00;0.00;;;;;;;;2;261077487;261077487;-75
2022/03/30 00:15:43;;;;;;;;;0.00;0.00;;;;;;;;2;288083853;288083853;-75
2022/03/30 00:23:59;;;;;;;;;0.00;0.00;;;;;;;;2;261071366;261071366;-75
2022/03/30 00:33:26;;;;;;;;;0.00;0.00;;;;;;;;2;288078696;288078696;-74
2022/03/30 00:41:42;;;;;;;;;0.00;0.00;;;;;;;;2;261076504;261076504;-74
2022/03/30 00:54:29;;;;;;;;;0.00;0.00;;;;;;;;2;288085208;288085208;-74
2022/03/30 01:02:45;;;;;;;;;0.00;0.00;;;;;;;;2;261075723;261075723;-75
2022/03/30 01:12:14;;;;;;;;;0.00;0.00;;;;;;;;2;288085314;288085314;-74
2022/03/30 01:20:29;;;;;;;;;0.00;0.00;;;;;;;;2;261074230;261074230;-74
2022/03/30 01:38:31;;;;;;;;;0.00;0.00;;;;;;;;2;261076619;261076619;-76
2022/03/30 01:47:59;;;;;;;;;0.00;0.00;;;;;;;;2;288083497;288083497;-72
2022/03/30 01:56:15;;;;;;;;;0.00;0.00;;;;;;;;2;261074924;261074924;-71
2022/03/30 02:05:42;;;;;;;;;0.00;0.00;;;;;;;;2;288084917;288084917;-74
2022/03/30 02:13:58;;;;;;;;;0.00;0.00;;;;;;;;2;261077092;261077092;-74
2022/03/30 02:23:26;;;;;;;;;0.00;0.00;;;;;;;;2;288085761;288085761;-74
2022/03/30 02:31:41;;;;;;;;;0.00;0.00;;;;;;;;2;261077272;261077272;-74
2022/03/30 02:41:09;;;;;;;;;0.00;0.00;;;;;;;;2;288082722;288082722;-74
2022/03/30 02:49:25;;;;;;;;;0.00;0.00;;;;;;;;2;261078276;261078276;-74
2022/03/30 02:58:53;;;;;;;;;0.00;0.00;;;;;;;;2;288086806;288086806;-74
2022/03/30 03:07:08;;;;;;;;;0.00;0.00;;;;;;;;2;261076926;261076926;-74
2022/03/30 03:16:36;;;;;;;;;0.00;0.00;;;;;;;;2;288083638;288083638;-74
2022/03/30 03:24:51;;;;;;;;;0.00;0.00;;;;;;;;2;261075306;261075306;-74
2022/03/30 03:34:19;;;;;;;;;0.00;0.00;;;;;;;;2;288083372;288083372;-75
2022/03/30 03:42:35;;;;;;;;;0.00;0.00;;;;;;;;2;261077725;261077725;-74
2022/03/30 03:52:03;;;;;;;;;0.00;0.00;;;;;;;;2;288084083;288084083;-74
2022/03/30 04:00:19;;;;;;;;;0.00;0.00;;;;;;;;2;261073556;261073556;-74
2022/03/30 04:09:46;;;;;;;;;0.00;0.00;;;;;;;;2;288083294;288083294;-72
2022/03/30 04:18:03;;;;;;;;;0.00;0.00;;;;;;;;2;261078753;261078753;-72
2022/03/30 04:27:31;;;;;;;;;0.00;0.00;;;;;;;;2;288084571;288084571;-74
2022/03/30 04:35:47;;;;;;;;;0.00;0.00;;;;;;;;2;261076049;261076049;-74
2022/03/30 04:45:14;;;;;;;;;0.00;0.00;;;;;;;;2;288084372;288084372;-74
2022/03/30 04:53:30;;;;;;;;;0.00;0.00;;;;;;;;2;261076557;261076557;-75
2022/03/30 05:02:57;;;;;;;;;0.00;0.00;;;;;;;;2;288084631;288084631;-74
2022/03/30 05:11:13;;;;;;;;;0.00;0.00;;;;;;;;2;261076952;261076952;-75
2022/03/30 05:20:44;;;;;;;;;0.00;0.00;;;;;;;;2;288084405;288084405;-75
2022/03/30 05:28:59;;;;;;;;;0.00;0.00;;;;;;;;2;261076289;261076289;-75
2022/03/30 05:38:27;;;;;;;;;0.00;0.00;;;;;;;;2;288084270;288084270;-75
2022/03/30 05:46:42;;;;;;;;;0.00;0.00;;;;;;;;2;261073751;261073751;-72
2022/03/30 05:56:10;;;;;;;;;0.00;0.00;;;;;;;;2;288082674;288082674;-74
2022/03/30 06:04:26;;;;;;;;;0.00;0.00;;;;;;;;2;261076508;261076508;-74
2022/03/30 06:13:53;;;;;;;;;0.00;0.00;;;;;;;;2;288084678;288084678;-75
2022/03/30 06:22:09;;;;;;;;;0.00;0.00;;;;;;;;2;261075746;261075746;-76
2022/03/30 06:31:36;;;;;;;;;0.00;0.00;;;;;;;;2;288083115;288083115;-73
2022/03/30 06:39:52;;;;;;;;;0.00;0.00;;;;;;;;2;261075589;261075589;-74
2022/03/30 06:49:19;;;;;;;;;0.00;0.00;;;;;;;;2;288083371;288083371;-74
2022/03/30 06:57:35;;;;;;;;;0.00;0.00;;;;;;;;2;261076265;261076265;-74
2022/03/30 07:15:38;;;;;;;;;0.00;0.00;;;;;;;;2;261077123;261077123;-73
2022/03/30 07:25:06;;;;;;;;;0.00;0.00;;;;;;;;2;288099400;288099400;-73
2022/03/30 07:33:23;;;;;;;;;0.00;0.00;;;;;;;;2;261074866;261074866;-73
2022/03/30 07:42:52;;;;;;;;;0.00;0.00;;;;;;;;2;288086479;288086479;-73
2022/03/30 07:51:07;;;;;;;;;0.00;0.00;;;;;;;;2;261074538;261074538;-74
2022/03/30 08:00:35;;;;;;;;;0.00;0.00;;;;;;;;2;288087757;288087757;-76
2022/03/30 08:08:50;;;;;;;;;0.00;0.00;;;;;;;;2;261083506;261083506;-77
2022/03/30 08:18:18;;;;;;;;;0.00;0.00;;;;;;;;2;288084101;288084101;-76
2022/03/30 08:26:33;;;;;;;;;0.00;0.00;;;;;;;;2;261082138;261082138;-77
2022/03/30 08:36:01;;;;;;;;;0.00;0.00;;;;;;;;2;288083037;288083037;-76
2022/03/30 08:44:17;;;;;;;;;0.00;0.00;;;;;;;;2;261079070;261079070;-77
2022/03/30 08:53:47;;;;;;;;;0.00;0.00;;;;;;;;2;288081569;288081569;-77
2022/03/30 09:02:03;;;;;;;;;0.00;0.00;;;;;;;;2;261078485;261078485;-74
2022/03/30 09:11:55;;;;;;;;;0.00;0.00;;;;;;;;2;288084057;288084057;-74
2022/03/30 09:20:19;;;;;;;;;0.00;0.00;;;;;;;;2;261085049;261085049;-74
2022/03/30 09:29:47;;;;;;;;;0.00;0.00;;;;;;;;2;288085349;288085349;-77
2022/03/30 09:38:15;;;;;;;;;0.00;0.00;;;;;;;;2;261075904;261075904;-77
2022/03/30 09:47:43;;;;;;;;;0.00;0.00;;;;;;;;2;288085809;288085809;-76
2022/03/30 09:56:03;;;;;;;;;0.00;0.00;;;;;;;;2;261077395;261077395;-76
2022/03/30 10:05:30;;;;;;;;;0.00;0.00;;;;;;;;2;288086827;288086827;-76
2022/03/30 10:13:47;;;;;;;;;0.00;0.00;;;;;;;;2;261074244;261074244;-76
2022/03/30 10:23:38;;;;;;;;;0.00;0.00;;;;;;;;2;288083989;288083989;-76
2022/03/30 10:32:13;;;;;;;;;0.00;0.00;;;;;;;;2;261076493;261076493;-76
2022/03/30 10:41:46;;;;;;;;;0.00;0.00;;;;;;;;2;288082160;288082160;-76
2022/03/30 10:50:03;;;;;;;;;0.00;0.00;;;;;;;;2;261077459;261077459;-76
2022/03/30 10:59:31;;;;;;;;;0.00;0.00;;;;;;;;2;288087093;288087093;-74
2022/03/30 11:07:46;;;;;;;;;0.00;0.00;;;;;;;;2;261077502;261077502;-74
2022/03/30 11:17:29;;;;;;;;;0.00;0.00;;;;;;;;2;288084759;288084759;-74
2022/03/30 11:25:51;;;;;;;;;0.00;0.00;;;;;;;;2;261078809;261078809;-75
2022/03/30 11:35:21;;;;;;;;;0.00;0.00;;;;;;;;2;288086265;288086265;-74
2022/03/30 11:53:25;;;;;;;;;0.00;0.00;;;;;;;;2;288084631;288084631;-74
2022/03/30 12:01:41;;;;;;;;;0.00;0.00;;;;;;;;2;261078874;261078874;-74
2022/03/30 12:11:09;;;;;;;;;0.00;0.00;;;;;;;;2;288087284;288087284;-74
2022/03/30 12:19:25;;;;;;;;;0.00;0.00;;;;;;;;2;261078230;261078230;-74
2022/03/30 12:29:09;;;;;;;;;0.00;0.00;;;;;;;;2;288085465;288085465;-73
2022/03/30 12:37:24;;;;;;;;;0.00;0.00;;;;;;;;2;261075930;261075930;-74
2022/03/30 12:46:52;;;;;;;;;0.00;0.00;;;;;;;;2;288084734;288084734;-75
2022/03/30 12:55:11;;;;;;;;;0.00;0.00;;;;;;;;2;261080468;261080468;-75
2022/03/30 13:04:47;;;;;;;;;0.00;0.00;;;;;;;;2;288086673;288086673;-75
2022/03/30 13:13:04;;;;;;;;;0.00;0.00;;;;;;;;2;261073578;261073578;-75
2022/03/30 13:22:32;;;;;;;;;0.00;0.00;;;;;;;;2;288088794;288088794;-75
2022/03/30 13:30:47;;;;;;;;;0.00;0.00;;;;;;;;2;261075655;261075655;-75
2022/03/30 13:40:15;;;;;;;;;0.00;0.00;;;;;;;;2;288085818;288085818;-75
2022/03/30 13:48:30;;;;;;;;;0.00;0.00;;;;;;;;2;261077631;261077631;-75
2022/03/30 13:57:58;;;;;;;;;0.00;0.00;;;;;;;;2;288085324;288085324;-75
2022/03/30 14:06:14;;;;;;;;;0.00;0.00;;;;;;;;2;261078907;261078907;-75
2022/03/30 14:15:41;;;;;;;;;0.00;0.00;;;;;;;;2;288085770;288085770;-75
2022/03/30 14:23:56;;;;;;;;;0.00;0.00;;;;;;;;2;261077636;261077636;-75
2022/03/30 14:33:24;;;;;;;;;0.00;0.00;;;;;;;;2;288085406;288085406;-75
2022/03/30 14:41:40;;;;;;;;;0.00;0.00;;;;;;;;2;261076155;261076155;-75
2022/03/30 14:51:09;;;;;;;;;0.00;0.00;;;;;;;;2;288081730;288081730;-75
2022/03/30 14:59:24;;;;;;;;;0.00;0.00;;;;;;;;2;261075173;261075173;-75
2022/03/30 15:08:52;;;;;;;;;0.00;0.00;;;;;;;;2;288086906;288086906;-75
2022/03/30 15:17:08;;;;;;;;;0.00;0.00;;;;;;;;2;261079936;261079936;-77
2022/03/30 15:26:36;;;;;;;;;0.00;0.00;;;;;;;;2;288083384;288083384;-77
2022/03/30 15:34:52;;;;;;;;;0.00;0.00;;;;;;;;2;261077525;261077525;-76
2022/03/30 15:44:19;;;;;;;;;0.00;0.00;;;;;;;;2;288083124;288083124;-76
2022/03/30 15:52:35;;;;;;;;;0.00;0.00;;;;;;;;2;261076735;261076735;-76
2022/03/30 16:02:04;;;;;;;;;0.00;0.00;;;;;;;;2;288085085;288085085;-76
2022/03/30 16:10:19;;;;;;;;;0.00;0.00;;;;;;;;2;261076744;261076744;-77
2022/03/30 16:19:49;;;;;;;;;0.00;0.00;;;;;;;;2;288085117;288085117;-78
2022/03/30 16:28:05;;;;;;;;;0.00;0.00;;;;;;;;2;261078148;261078148;-77
2022/03/30 16:37:33;;;;;;;;;0.00;0.00;;;;;;;;2;288082908;288082908;-79
2022/03/30 16:45:49;;;;;;;;;0.00;0.00;;;;;;;;2;261077526;261077526;-79
2022/03/30 16:55:16;;;;;;;;;0.00;0.00;;;;;;;;2;288086841;288086841;-78
2022/03/30 17:03:33;;;;;;;;;0.00;0.00;;;;;;;;2;261078217;261078217;-77
2022/03/30 17:13:00;;;;;;;;;0.00;0.00;;;;;;;;2;288082070;288082070;-75
2022/03/30 17:21:16;;;;;;;;;0.00;0.00;;;;;;;;2;261079051;261079051;-74
2022/03/30 17:30:43;;;;;;;;;0.00;0.00;;;;;;;;2;288082344;288082344;-74
2022/03/30 17:38:59;;;;;;;;;0.00;0.00;;;;;;;;2;261075093;261075093;-75
2022/03/30 17:57:02;;;;;;;;;0.00;0.00;;;;;;;;2;261076490;261076490;-75
2022/03/30 18:06:30;;;;;;;;;0.00;0.00;;;;;;;;2;288085019;288085019;-76
2022/03/30 18:14:47;;;;;;;;;0.00;0.00;;;;;;;;2;261076500;261076500;-75
2022/03/30 18:24:15;;;;;;;;;0.00;0.00;;;;;;;;2;288085500;288085500;-75
2022/03/30 18:32:30;;;;;;;;;0.00;0.00;;;;;;;;2;261077613;261077613;-74
2022/03/30 18:41:59;;;;;;;;;0.00;0.00;;;;;;;;2;288082843;288082843;-74
2022/03/30 18:50:14;;;;;;;;;0.00;0.00;;;;;;;;2;261077204;261077204;-75
2022/03/30 18:59:43;;;;;;;;;0.00;0.00;;;;;;;;2;288087032;288087032;-75
2022/03/30 19:07:59;;;;;;;;;0.00;0.00;;;;;;;;2;261075198;261075198;-76
2022/03/30 19:17:26;;;;;;;;;0.00;0.00;;;;;;;;2;288083892;288083892;-76
2022/03/30 19:25:44;;;;;;;;;0.00;0.00;;;;;;;;2;261079312;261079312;-75
2022/03/30 19:35:13;;;;;;;;;0.00;0.00;;;;;;;;2;288086562;288086562;-75
2022/03/30 19:43:28;;;;;;;;;0.00;0.00;;;;;;;;2;261075535;261075535;-75
2022/03/30 19:52:57;;;;;;;;;0.00;0.00;;;;;;;;2;288084991;288084991;-76
2022/03/30 20:01:12;;;;;;;;;0.00;0.00;;;;;;;;2;261077278;261077278;-75
2022/03/30 20:10:43;;;;;;;;;0.00;0.00;;;;;;;;2;288087327;288087327;-75
2022/03/30 20:18:59;;;;;;;;;0.00;0.00;;;;;;;;2;261076633;261076633;-77
2022/03/30 20:28:26;;;;;;;;;0.00;0.00;;;;;;;;2;288099357;288099357;-76
2022/03/30 20:36:42;;;;;;;;;0.00;0.00;;;;;;;;2;261077243;261077243;-76
2022/03/30 20:46:10;;;;;;;;;0.00;0.00;;;;;;;;2;288083779;288083779;-76
2022/03/30 20:54:26;;;;;;;;;0.00;0.00;;;;;;;;2;261079409;261079409;-76
2022/03/30 21:03:53;;;;;;;;;0.00;0.00;;;;;;;;2;288085847;288085847;-75
2022/03/30 21:12:09;;;;;;;;;0.00;0.00;;;;;;;;2;261077551;261077551;-75
2022/03/30 21:21:37;;;;;;;;;0.00;0.00;;;;;;;;2;288083841;288083841;-76
2022/03/30 21:29:52;;;;;;;;;0.00;0.00;;;;;;;;2;261075601;261075601;-76
2022/03/30 21:39:20;;;;;;;;;0.00;0.00;;;;;;;;2;288083265;288083265;-75
2022/03/30 21:47:36;;;;;;;;;0.00;0.00;;;;;;;;2;261076828;261076828;-75
2022/03/30 21:57:03;;;;;;;;;0.00;0.00;;;;;;;;2;288086780;288086780;-75
2022/03/30 22:05:20;;;;;;;;;0.00;0.00;;;;;;;;2;261076026;261076026;-74
2022/03/30 22:14:48;;;;;;;;;0.00;0.00;;;;;;;;2;288083798;288083798;-75
2022/03/30 22:23:05;;;;;;;;;0.00;0.00;;;;;;;;2;261078426;261078426;-75
2022/03/30 22:41:07;;;;;;;;;0.00;0.00;;;;;;;;2;261076913;261076913;-75
2022/03/30 22:50:35;;;;;;;;;0.00;0.00;;;;;;;;2;288084648;288084648;-75
2022/03/30 22:58:52;;;;;;;;;0.00;0.00;;;;;;;;2;261077232;261077232;-75
2022/03/30 23:08:19;;;;;;;;;0.00;0.00;;;;;;;;2;288082807;288082807;-75
2022/03/30 23:16:35;;;;;;;;;0.00;0.00;;;;;;;;2;261075015;261075015;-74
2022/03/30 23:26:02;;;;;;;;;0.00;0.00;;;;;;;;2;288086303;288086303;-75
2022/03/30 23:34:18;;;;;;;;;0.00;0.00;;;;;;;;2;261078814;261078814;-75
2022/03/30 23:43:46;;;;;;;;;0.00;0.00;;;;;;;;2;288083934;288083934;-75
2022/03/30 23:52:02;;;;;;;;;0.00;0.00;;;;;;;;2;261075834;261075834;-75
